Fountain Dale, PA

1:53 PM EDT on July 23, 2017 (GMT -0400)
Fountain Dale | | Change Station

Elev 899 ft 39.73 °N, 77.43 °W | Updated 1 hour ago

Overcast
Overcast
83 °F
Feels Like 88 °F
N
4
Wind Variable Wind from Variable

Today
High -- | Low -- °F
--% Chance of Precip.
Yesterday
High -- | Low -- °F
Precip. -- in
Pressure 29.76 in
Visibility 10.0 miles
Clouds Scattered Clouds 3500 ft
Mostly Cloudy 4500 ft
Overcast 7500 ft
Heat Index 88 °F
Dew Point 72 °F
Humidity 69%
Rainfall 0.00 in
Snow Depth Not available.
6:00 AM 8:30 PM
New Moon, 0% visible
METAR KRYT 231653Z AUTO VRB03KT 10SM SCT035 BKN045 OVC075 28/22 A2980 RMK AO2 SLP076 T02830222 TSNO $
Pressure 29.76 in
Visibility 10.0 miles
Clouds Scattered Clouds 3500 ft
Mostly Cloudy 4500 ft
Overcast 7500 ft
Heat Index 88 °F
Dew Point 72 °F
Humidity 69%
Rainfall 0.00 in
Snow Depth Not available.
6:00 AM 8:30 PM
New Moon, 0% visible
METAR KRYT 231653Z AUTO VRB03KT 10SM SCT035 BKN045 OVC075 28/22 A2980 RMK AO2 SLP076 T02830222 TSNO $

Get Severe Weather Alerts

Thanks for signing up!

Be on the lookout for a verification email in your inbox.

You'll start receiving the daily forecast at 6 AM.

×

10-Day Weather Forecast

Almanac

Astronomy

Jul. 23, 2017 Rise Set
Actual Time
Civil Twilight
Nautical Twilight
Astronomical Twilight
Moon
Length of Visible Light
Length of Day
Tomorrow will be .
, % of the Moon is Illuminated

Today's Extremes

State Highs State Lows

Community

WunderPhotos

Category 6

Welcome to Category 6. This is the collective home for Weather Underground's featured writeups by Dr. Jeff Masters (right), Bob Henson (left), Chris Burt, and other regular contributors.

Nearby

Air Quality

  Air Quality AQ Index Pollutant
Not available.

Snow Depth

Station Depth Elevation

Earthquake Activity

City Distance Mag. Time & Date
Minimum magnitude displayed is 2.5.

Coastal Water Temperatures

Place Temperature

Stations

Nearby Weather Stations

Station Location Temp. Windchill Dew Point Humidity Wind Precip. Elev Updated Type
                   

Watches & Warnings

There are currently no watches in effect.